createdAt,value
2016-08-13T00:00:13.221Z,19.90
2016-08-13T00:01:13.395Z,19.90
2016-08-13T00:02:13.671Z,19.90
2016-08-13T00:03:16.261Z,19.90
2016-08-13T00:04:21.077Z,19.90
2016-08-13T00:05:27.793Z,19.90
2016-08-13T00:06:32.199Z,19.90
2016-08-13T00:07:27.121Z,19.90
2016-08-13T00:08:21.641Z,19.89
2016-08-13T00:09:20.273Z,19.89
2016-08-13T00:10:21.520Z,19.89
2016-08-13T00:11:31.685Z,19.89
2016-08-13T00:12:36.793Z,19.89
2016-08-13T00:13:23.968Z,19.89
2016-08-13T00:14:37.482Z,19.90
2016-08-13T00:15:34.437Z,19.89
2016-08-13T00:16:32.770Z,19.90
2016-08-13T00:17:21.403Z,19.89
2016-08-13T00:18:33.997Z,19.89
2016-08-13T00:19:31.399Z,19.88
2016-08-13T00:20:36.218Z,19.88
2016-08-13T00:21:40.994Z,19.89
2016-08-13T00:22:30.130Z,19.89
2016-08-13T00:23:38.638Z,19.90
2016-08-13T00:24:26.643Z,19.89
2016-08-13T00:25:31.491Z,19.89
2016-08-13T00:26:27.007Z,19.88
2016-08-13T00:27:23.482Z,19.97
2016-08-13T00:28:27.736Z,20.42
2016-08-13T00:29:26.399Z,20.47
2016-08-13T00:30:26.672Z,20.50
2016-08-13T00:31:30.597Z,20.52
2016-08-13T00:32:17.462Z,19.99
2016-08-13T00:33:24.973Z,19.94
2016-08-13T00:34:28.506Z,19.92
2016-08-13T00:35:26.295Z,19.90
2016-08-13T00:36:26.458Z,19.90
2016-08-13T00:37:21.451Z,19.89
2016-08-13T00:38:41.669Z,19.89
2016-08-13T00:39:30.754Z,19.88
2016-08-13T00:40:27.842Z,19.89
2016-08-13T00:41:32.259Z,19.89
2016-08-13T00:42:18.035Z,19.96
2016-08-13T00:43:17.815Z,20.41
2016-08-13T00:45:27.994Z,20.48
2016-08-13T00:46:31.102Z,20.50
2016-08-13T00:47:14.889Z,20.50
2016-08-13T00:48:19.838Z,20.52
2016-08-13T00:49:31.124Z,20.52
2016-08-13T00:50:36.153Z,20.52
2016-08-13T00:51:26.806Z,20.14
2016-08-13T00:52:20.449Z,19.99
2016-08-13T00:53:18.881Z,19.94
2016-08-13T00:54:28.347Z,19.91
2016-08-13T00:55:28.238Z,19.89
2016-08-13T00:56:37.179Z,19.88
2016-08-13T00:57:20.636Z,19.90
2016-08-13T00:58:28.089Z,19.87
2016-08-13T00:59:27.174Z,20.03
2016-08-13T01:00:41.499Z,19.97
2016-08-13T01:01:36.448Z,19.90
2016-08-13T01:02:21.148Z,19.88
2016-08-13T01:03:27.182Z,19.87
2016-08-13T01:04:19.692Z,19.87
2016-08-13T01:05:16.012Z,19.87
2016-08-13T01:06:18.311Z,19.86
2016-08-13T01:07:11.588Z,19.86
2016-08-13T01:08:16.388Z,19.87
2016-08-13T01:09:13.547Z,19.87
2016-08-13T01:10:14.281Z,19.86
2016-08-13T01:11:17.836Z,19.87
2016-08-13T01:12:20.300Z,19.86
2016-08-13T01:13:22.988Z,19.85
2016-08-13T01:14:25.239Z,19.90
2016-08-13T01:15:36.328Z,19.85
2016-08-13T01:16:32.279Z,19.86
2016-08-13T01:17:27.666Z,19.86
2016-08-13T01:18:21.085Z,19.86
2016-08-13T01:19:31.303Z,19.86
2016-08-13T01:20:26.866Z,19.85
2016-08-13T01:21:29.532Z,19.85
2016-08-13T01:22:15.321Z,19.86
2016-08-13T01:23:23.172Z,19.86
2016-08-13T01:24:31.377Z,19.86
2016-08-13T01:25:26.279Z,19.85
2016-08-13T01:26:30.974Z,19.85
2016-08-13T01:27:17.047Z,19.85
2016-08-13T01:28:19.434Z,19.85
2016-08-13T01:29:34.357Z,19.84
2016-08-13T01:30:38.116Z,19.85
2016-08-13T01:31:31.426Z,19.85
2016-08-13T01:32:18.088Z,19.85
2016-08-13T01:33:28.368Z,19.85
2016-08-13T01:34:25.634Z,19.85
2016-08-13T01:35:33.807Z,19.86
2016-08-13T01:36:36.280Z,19.85
2016-08-13T01:37:18.833Z,19.85
2016-08-13T01:38:26.778Z,20.37
2016-08-13T01:39:29.235Z,20.42
2016-08-13T01:40:26.008Z,20.46
2016-08-13T01:41:30.492Z,20.48
2016-08-13T01:42:15.729Z,20.47
2016-08-13T01:43:16.130Z,20.47
2016-08-13T01:44:31.536Z,20.48
2016-08-13T01:45:28.552Z,19.96
2016-08-13T01:46:27.102Z,19.91
2016-08-13T01:47:21.918Z,19.88
2016-08-13T01:48:25.544Z,19.87
2016-08-13T01:49:27.371Z,19.86
2016-08-13T01:50:28.820Z,19.86
2016-08-13T01:51:27.530Z,19.86
2016-08-13T01:52:20.309Z,19.86
2016-08-13T01:53:18.981Z,19.85
2016-08-13T01:54:26.604Z,19.87
2016-08-13T01:55:36.429Z,19.85
2016-08-13T01:56:31.044Z,19.84
2016-08-13T01:57:18.402Z,19.85
2016-08-13T01:58:29.078Z,19.84
2016-08-13T01:59:36.644Z,19.85
2016-08-13T02:00:30.302Z,19.84
2016-08-13T02:01:27.740Z,19.84
2016-08-13T02:02:17.270Z,19.84
2016-08-13T02:03:26.942Z,19.84
2016-08-13T02:04:28.433Z,19.84
2016-08-13T02:05:31.610Z,19.84
2016-08-13T02:06:35.696Z,19.84
2016-08-13T02:07:13.801Z,19.86
2016-08-13T02:08:31.670Z,19.80
2016-08-13T02:09:38.048Z,19.85
2016-08-13T02:10:15.920Z,19.84
2016-08-13T02:11:17.930Z,19.84
2016-08-13T02:12:20.458Z,19.84
2016-08-13T02:13:16.640Z,19.84
2016-08-13T02:14:13.393Z,19.83
2016-08-13T02:15:17.953Z,19.83
2016-08-13T02:16:35.771Z,19.83
2016-08-13T02:17:21.361Z,19.83
2016-08-13T02:18:27.116Z,19.84
2016-08-13T02:19:31.763Z,19.84
2016-08-13T02:20:25.863Z,19.83
2016-08-13T02:21:26.506Z,19.83
2016-08-13T02:22:19.779Z,19.83
2016-08-13T02:23:30.073Z,19.83
2016-08-13T02:24:31.683Z,19.82
2016-08-13T02:25:22.503Z,19.82
2016-08-13T02:26:31.451Z,20.36
2016-08-13T02:27:17.779Z,20.06
2016-08-13T02:28:22.756Z,19.90
2016-08-13T02:29:35.860Z,19.86
2016-08-13T02:30:30.907Z,19.84
2016-08-13T02:31:23.768Z,19.83
2016-08-13T02:32:17.655Z,19.83
2016-08-13T02:33:27.306Z,19.82
2016-08-13T02:34:26.588Z,19.82
2016-08-13T02:35:37.329Z,19.82
2016-08-13T02:36:24.255Z,19.81
2016-08-13T02:37:21.750Z,19.81
2016-08-13T02:38:22.353Z,20.34
2016-08-13T02:39:34.905Z,20.40
2016-08-13T02:40:25.540Z,20.44
2016-08-13T02:41:19.847Z,20.44
2016-08-13T02:42:24.850Z,20.45
2016-08-13T02:43:28.753Z,20.46
2016-08-13T02:44:27.729Z,20.46
2016-08-13T02:45:27.751Z,20.46
2016-08-13T02:46:31.909Z,20.48
2016-08-13T02:47:20.365Z,19.93
2016-08-13T02:48:21.757Z,19.87
2016-08-13T02:49:27.078Z,19.85
2016-08-13T02:50:37.477Z,19.84
2016-08-13T02:51:36.933Z,19.83
2016-08-13T02:52:15.099Z,19.82
2016-08-13T02:53:26.354Z,19.82
2016-08-13T02:54:33.020Z,19.82
2016-08-13T02:55:22.967Z,19.81
2016-08-13T02:56:29.116Z,19.81
2016-08-13T02:57:26.521Z,19.81
2016-08-13T02:58:26.988Z,19.82
2016-08-13T02:59:31.042Z,19.80
2016-08-13T03:00:31.530Z,19.81
2016-08-13T03:01:19.771Z,19.82
2016-08-13T03:02:16.679Z,19.81
2016-08-13T03:03:26.277Z,19.81
2016-08-13T03:04:33.283Z,19.80
2016-08-13T03:05:28.910Z,19.80
2016-08-13T03:06:33.876Z,19.80
2016-08-13T03:07:22.759Z,19.80
2016-08-13T03:08:15.342Z,19.80
2016-08-13T03:09:25.517Z,19.80
2016-08-13T03:10:25.149Z,19.81
2016-08-13T03:11:27.911Z,19.80
2016-08-13T03:12:20.678Z,19.80
2016-08-13T03:13:27.967Z,19.80
2016-08-13T03:15:28.504Z,19.80
2016-08-13T03:16:14.312Z,19.80
2016-08-13T03:17:16.065Z,19.80
2016-08-13T03:18:15.104Z,19.80
2016-08-13T03:19:12.564Z,19.80
2016-08-13T03:20:14.264Z,20.34
2016-08-13T03:21:15.149Z,20.39
2016-08-13T03:22:19.992Z,20.41
2016-08-13T03:23:26.759Z,20.42
2016-08-13T03:24:34.479Z,20.44
2016-08-13T03:25:25.917Z,20.44
2016-08-13T03:26:31.312Z,20.44
2016-08-13T03:27:18.016Z,20.46
2016-08-13T03:28:13.888Z,20.46
2016-08-13T03:29:21.506Z,20.46
2016-08-13T03:30:26.786Z,19.92
2016-08-13T03:31:21.744Z,19.86
2016-08-13T03:32:20.258Z,19.83
2016-08-13T03:33:27.935Z,19.86
2016-08-13T03:34:41.805Z,20.35
2016-08-13T03:35:37.105Z,20.40
2016-08-13T03:36:28.260Z,20.41
2016-08-13T03:37:31.957Z,19.90
2016-08-13T03:38:23.092Z,19.85
2016-08-13T03:39:33.683Z,19.83
2016-08-13T03:40:36.423Z,19.81
2016-08-13T03:41:26.303Z,19.80
2016-08-13T03:42:16.056Z,19.83
2016-08-13T03:43:26.918Z,19.80
2016-08-13T03:44:31.991Z,19.79
2016-08-13T03:45:34.479Z,19.84
2016-08-13T03:46:20.417Z,19.79
2016-08-13T03:47:27.908Z,19.79
2016-08-13T03:48:28.030Z,19.79
2016-08-13T03:49:28.949Z,19.79
2016-08-13T03:50:27.516Z,19.79
2016-08-13T03:51:24.879Z,19.79
2016-08-13T03:52:30.698Z,19.79
2016-08-13T03:53:26.629Z,19.79
2016-08-13T03:54:36.487Z,19.79
2016-08-13T03:55:27.358Z,19.81
2016-08-13T03:56:33.862Z,20.32
2016-08-13T03:57:15.897Z,20.36
2016-08-13T03:58:19.504Z,20.40
2016-08-13T03:59:29.226Z,20.42
2016-08-13T04:00:23.258Z,20.42
2016-08-13T04:01:26.408Z,20.43
2016-08-13T04:02:13.456Z,20.43
2016-08-13T04:03:19.056Z,19.90
2016-08-13T04:04:32.089Z,19.85
2016-08-13T04:05:38.361Z,19.82
2016-08-13T04:06:31.515Z,20.34
2016-08-13T04:07:20.314Z,19.86
2016-08-13T04:08:20.047Z,19.82
2016-08-13T04:09:28.578Z,19.81
2016-08-13T04:10:28.643Z,19.79
2016-08-13T04:11:29.367Z,19.80
2016-08-13T04:12:22.166Z,19.78
2016-08-13T04:13:27.279Z,19.79
2016-08-13T04:14:33.007Z,19.78
2016-08-13T04:15:31.386Z,19.78
2016-08-13T04:16:31.033Z,19.77
2016-08-13T04:17:20.524Z,19.78
2016-08-13T04:18:19.824Z,19.78
2016-08-13T04:19:31.918Z,19.85
2016-08-13T04:20:21.603Z,19.78
2016-08-13T04:21:20.499Z,19.78
2016-08-13T04:22:17.164Z,19.78
2016-08-13T04:23:17.241Z,20.31
2016-08-13T04:24:19.119Z,20.36
2016-08-13T04:25:18.344Z,20.39
2016-08-13T04:26:13.589Z,19.91
2016-08-13T04:27:15.835Z,19.83
2016-08-13T04:28:19.707Z,19.80
2016-08-13T04:29:14.314Z,19.79
2016-08-13T04:30:13.240Z,19.79
2016-08-13T04:31:33.186Z,19.78
2016-08-13T04:32:22.086Z,19.78
2016-08-13T04:33:26.340Z,19.77
2016-08-13T04:34:27.123Z,19.77
2016-08-13T04:35:44.566Z,19.77
2016-08-13T04:36:26.722Z,19.78
2016-08-13T04:37:26.856Z,19.77
2016-08-13T04:38:18.074Z,19.82
2016-08-13T04:39:32.691Z,19.77
2016-08-13T04:40:31.594Z,19.77
2016-08-13T04:41:26.789Z,19.77
2016-08-13T04:42:23.882Z,19.77
2016-08-13T04:43:22.939Z,19.77
2016-08-13T04:44:26.118Z,19.77
2016-08-13T04:45:32.155Z,19.77
2016-08-13T04:46:26.554Z,19.77
2016-08-13T04:47:22.330Z,19.78
2016-08-13T04:48:20.830Z,19.77
2016-08-13T04:49:24.326Z,19.78
2016-08-13T04:50:26.766Z,20.30
2016-08-13T04:51:30.863Z,19.99
2016-08-13T04:52:29.640Z,19.84
2016-08-13T04:53:22.725Z,19.81
2016-08-13T04:54:32.904Z,19.78
2016-08-13T04:55:32.021Z,19.78
2016-08-13T04:56:28.292Z,19.78
2016-08-13T04:57:19.832Z,19.78
2016-08-13T04:58:23.628Z,19.77
2016-08-13T04:59:25.963Z,19.77
2016-08-13T05:00:31.746Z,19.77
2016-08-13T05:01:25.421Z,19.76
2016-08-13T05:02:23.460Z,19.77
2016-08-13T05:03:26.035Z,19.77
2016-08-13T05:04:23.385Z,19.77
2016-08-13T05:06:25.767Z,19.77
2016-08-13T05:07:24.475Z,19.77
2016-08-13T05:08:24.526Z,19.77
2016-08-13T05:09:21.552Z,19.77
2016-08-13T05:10:28.270Z,19.77
2016-08-13T05:11:30.500Z,19.76
2016-08-13T05:12:23.041Z,19.77
2016-08-13T05:13:23.837Z,19.77
2016-08-13T05:14:37.434Z,19.76
2016-08-13T05:15:29.301Z,19.77
2016-08-13T05:16:40.265Z,19.77
2016-08-13T05:17:18.344Z,19.77
2016-08-13T05:18:22.559Z,19.77
2016-08-13T05:19:31.371Z,19.77
2016-08-13T05:20:28.867Z,19.77
2016-08-13T05:21:17.791Z,19.77
2016-08-13T05:22:24.167Z,19.78
2016-08-13T05:23:26.850Z,19.78
2016-08-13T05:24:32.139Z,19.77
2016-08-13T05:25:33.737Z,19.77
2016-08-13T05:26:27.658Z,19.77
2016-08-13T05:27:22.763Z,19.78
2016-08-13T05:28:21.079Z,19.77
2016-08-13T05:29:35.624Z,19.77
2016-08-13T05:30:20.245Z,19.77
2016-08-13T05:31:12.958Z,19.78
2016-08-13T05:32:16.151Z,19.78
2016-08-13T05:33:13.953Z,19.78
2016-08-13T05:34:14.126Z,19.78
2016-08-13T05:35:15.233Z,19.78
2016-08-13T05:36:26.641Z,19.78
2016-08-13T05:37:24.275Z,19.78
2016-08-13T05:38:27.777Z,19.78
2016-08-13T05:39:28.397Z,19.79
2016-08-13T05:40:44.453Z,19.78
2016-08-13T05:41:29.278Z,19.78
2016-08-13T05:42:24.518Z,19.78
2016-08-13T05:43:21.020Z,19.87
2016-08-13T05:44:20.864Z,20.31
2016-08-13T05:45:25.663Z,20.38
2016-08-13T05:46:27.543Z,20.38
2016-08-13T05:47:21.191Z,20.40
2016-08-13T05:48:20.720Z,20.43
2016-08-13T05:49:22.032Z,20.43
2016-08-13T05:50:23.988Z,20.44
2016-08-13T05:51:30.693Z,20.44
2016-08-13T05:52:25.461Z,20.44
2016-08-13T05:53:18.550Z,20.45
2016-08-13T05:54:21.680Z,20.46
2016-08-13T05:56:27.022Z,20.45
2016-08-13T05:57:27.290Z,20.09
2016-08-13T05:58:23.644Z,19.91
2016-08-13T06:00:28.770Z,19.84
2016-08-13T06:01:26.364Z,19.82
2016-08-13T06:02:25.641Z,19.81
2016-08-13T06:03:17.449Z,19.81
2016-08-13T06:04:25.934Z,19.81
2016-08-13T06:05:26.290Z,19.80
2016-08-13T06:06:25.869Z,19.81
2016-08-13T06:07:31.293Z,19.81
2016-08-13T06:08:27.414Z,19.80
2016-08-13T06:09:26.942Z,19.81
2016-08-13T06:10:34.201Z,19.81
2016-08-13T06:11:28.393Z,19.81
2016-08-13T06:12:22.060Z,19.83
2016-08-13T06:13:26.653Z,20.34
2016-08-13T06:14:27.858Z,20.41
2016-08-13T06:15:26.475Z,20.44
2016-08-13T06:16:28.924Z,20.43
2016-08-13T06:17:21.386Z,20.45
2016-08-13T06:18:25.952Z,19.93
2016-08-13T06:19:24.946Z,19.88
2016-08-13T06:20:33.735Z,19.85
2016-08-13T06:21:27.510Z,19.83
2016-08-13T06:22:19.875Z,19.83
2016-08-13T06:23:19.426Z,19.83
2016-08-13T06:24:23.296Z,19.83
2016-08-13T06:25:19.710Z,19.83
2016-08-13T06:26:25.871Z,19.83
2016-08-13T06:27:26.783Z,19.82
2016-08-13T06:28:21.580Z,20.36
2016-08-13T06:29:32.052Z,20.42
2016-08-13T06:30:29.436Z,20.45
2016-08-13T06:31:23.255Z,20.46
2016-08-13T06:32:23.943Z,19.94
2016-08-13T06:33:33.088Z,19.89
2016-08-13T06:34:35.855Z,19.87
2016-08-13T06:35:15.798Z,19.87
2016-08-13T06:36:17.902Z,19.85
2016-08-13T06:37:13.105Z,19.85
2016-08-13T06:38:16.339Z,19.85
2016-08-13T06:39:13.179Z,19.84
2016-08-13T06:40:20.999Z,19.85
2016-08-13T06:41:15.727Z,19.85
2016-08-13T06:42:16.640Z,19.85
2016-08-13T06:43:15.524Z,19.85
2016-08-13T06:44:18.432Z,19.86
2016-08-13T06:45:21.319Z,19.85
2016-08-13T06:46:22.269Z,19.85
2016-08-13T06:47:32.255Z,19.85
2016-08-13T06:48:24.949Z,19.85
2016-08-13T06:49:37.784Z,19.86
2016-08-13T06:50:28.128Z,19.86
2016-08-13T06:51:26.233Z,19.86
2016-08-13T06:52:22.512Z,19.86
2016-08-13T06:53:23.406Z,19.86
2016-08-13T06:54:28.623Z,19.86
2016-08-13T06:55:24.363Z,19.86
2016-08-13T06:56:27.034Z,19.86
2016-08-13T06:57:23.884Z,19.86
2016-08-13T06:58:20.252Z,19.86
2016-08-13T06:59:30.197Z,19.87
2016-08-13T07:00:22.400Z,19.87
2016-08-13T07:01:25.003Z,19.87
2016-08-13T07:02:18.676Z,19.87
2016-08-13T07:03:26.938Z,19.87
2016-08-13T07:04:28.954Z,19.88
2016-08-13T07:05:30.676Z,19.87
2016-08-13T07:06:28.785Z,19.87
2016-08-13T07:07:26.488Z,19.87
2016-08-13T07:08:27.698Z,19.87
2016-08-13T07:09:31.681Z,19.88
2016-08-13T07:10:36.363Z,19.88
2016-08-13T07:11:36.806Z,19.88
2016-08-13T07:12:21.301Z,19.87
2016-08-13T07:13:26.783Z,20.42
2016-08-13T07:14:32.066Z,20.11
2016-08-13T07:15:34.843Z,19.96
2016-08-13T07:16:17.180Z,19.92
2016-08-13T07:17:23.695Z,19.91
2016-08-13T07:18:21.688Z,19.90
2016-08-13T07:19:20.108Z,19.89
2016-08-13T07:20:30.390Z,19.89
2016-08-13T07:21:26.393Z,19.89
2016-08-13T07:22:25.139Z,19.89
2016-08-13T07:23:20.279Z,19.89
2016-08-13T07:24:31.914Z,19.95
2016-08-13T07:25:35.977Z,19.89
2016-08-13T07:26:23.217Z,19.90
2016-08-13T07:27:21.863Z,19.89
2016-08-13T07:28:27.463Z,19.90
2016-08-13T07:29:18.519Z,19.90
2016-08-13T07:30:27.257Z,19.90
2016-08-13T07:31:22.007Z,19.90
2016-08-13T07:32:25.153Z,19.90
2016-08-13T07:33:22.494Z,19.90
2016-08-13T07:34:21.747Z,19.90
2016-08-13T07:35:25.515Z,20.45
2016-08-13T07:36:22.396Z,20.50
2016-08-13T07:37:22.982Z,20.52
2016-08-13T07:38:28.947Z,20.17
2016-08-13T07:39:26.917Z,20.10
2016-08-13T07:40:37.460Z,19.97
2016-08-13T07:41:26.475Z,19.94
2016-08-13T07:42:20.483Z,19.93
2016-08-13T07:43:14.606Z,19.93
2016-08-13T07:44:15.324Z,19.93
2016-08-13T07:45:12.622Z,19.93
2016-08-13T07:46:13.960Z,19.93
2016-08-13T07:47:14.624Z,19.92
2016-08-13T07:48:12.920Z,19.93
2016-08-13T07:49:13.492Z,19.93
2016-08-13T07:50:14.883Z,19.94
2016-08-13T07:51:12.737Z,19.92
2016-08-13T07:52:15.040Z,19.93
2016-08-13T07:53:16.159Z,19.93
2016-08-13T07:54:20.495Z,19.92
2016-08-13T07:55:16.590Z,19.93
2016-08-13T07:56:19.831Z,19.93
2016-08-13T07:57:18.661Z,20.00
2016-08-13T07:58:19.173Z,19.94
2016-08-13T07:59:20.566Z,19.94
2016-08-13T08:00:18.113Z,19.94
2016-08-13T08:01:16.703Z,19.94
2016-08-13T08:02:20.968Z,19.94
2016-08-13T08:03:14.659Z,19.94
2016-08-13T08:04:14.775Z,19.95
2016-08-13T08:05:20.151Z,19.95
2016-08-13T08:06:19.640Z,19.95
2016-08-13T08:07:20.769Z,19.97
2016-08-13T08:08:15.739Z,19.96
2016-08-13T08:09:18.543Z,19.95
2016-08-13T08:10:18.269Z,19.96
2016-08-13T08:11:21.713Z,19.96
2016-08-13T08:12:14.987Z,19.96
2016-08-13T08:13:17.698Z,19.96
2016-08-13T08:14:18.164Z,19.96
2016-08-13T08:15:14.594Z,19.96
2016-08-13T08:16:19.464Z,19.98
2016-08-13T08:17:18.859Z,19.98
2016-08-13T08:18:20.823Z,19.97
2016-08-13T08:19:17.480Z,19.96
2016-08-13T08:20:17.290Z,19.97
2016-08-13T08:21:23.414Z,19.97
2016-08-13T08:22:20.068Z,19.98
2016-08-13T08:23:20.759Z,19.98
2016-08-13T08:24:19.563Z,19.98
2016-08-13T08:25:23.231Z,19.97
2016-08-13T08:26:18.566Z,19.97
2016-08-13T08:27:21.763Z,19.98
2016-08-13T08:28:19.856Z,19.98
2016-08-13T08:29:16.614Z,19.98
2016-08-13T08:30:16.189Z,19.98
2016-08-13T08:31:14.256Z,19.98
2016-08-13T08:32:17.008Z,19.98
2016-08-13T08:33:12.851Z,19.98
2016-08-13T08:34:17.381Z,19.98
2016-08-13T08:35:14.126Z,19.98
2016-08-13T08:36:13.365Z,19.98
2016-08-13T08:37:13.162Z,19.98
2016-08-13T08:38:18.676Z,19.99
2016-08-13T08:39:13.907Z,19.98
2016-08-13T08:40:15.351Z,19.99
2016-08-13T08:41:14.091Z,19.98
2016-08-13T08:42:19.832Z,19.99
2016-08-13T08:43:17.097Z,19.98
2016-08-13T08:44:15.347Z,19.99
2016-08-13T08:45:18.551Z,19.99
2016-08-13T08:46:18.373Z,20.00
2016-08-13T08:47:12.526Z,20.03
2016-08-13T08:48:14.428Z,20.52
2016-08-13T08:49:15.898Z,20.05
2016-08-13T08:50:12.905Z,20.03
2016-08-13T08:51:14.167Z,20.01
2016-08-13T08:52:15.214Z,20.01
2016-08-13T08:53:17.122Z,20.01
2016-08-13T08:54:17.479Z,20.01
2016-08-13T08:55:14.600Z,20.01
2016-08-13T08:56:16.123Z,20.01
2016-08-13T08:57:13.954Z,20.00
2016-08-13T08:58:17.973Z,20.00
2016-08-13T08:59:20.183Z,20.01
2016-08-13T09:00:19.648Z,20.00
2016-08-13T09:01:17.015Z,20.00
2016-08-13T09:02:17.367Z,20.01
2016-08-13T09:03:20.116Z,20.01
2016-08-13T09:04:12.733Z,20.01
2016-08-13T09:05:16.558Z,20.01
2016-08-13T09:06:13.400Z,20.01
2016-08-13T09:07:17.629Z,20.01
2016-08-13T09:08:13.603Z,20.02
2016-08-13T09:09:16.559Z,20.01
2016-08-13T09:10:27.839Z,20.01
2016-08-13T09:11:15.863Z,20.06
2016-08-13T09:12:20.874Z,20.01
2016-08-13T09:13:15.442Z,20.02
2016-08-13T09:14:22.393Z,20.03
2016-08-13T09:15:22.504Z,20.03
2016-08-13T09:16:18.996Z,20.03
2016-08-13T09:17:13.530Z,20.03
2016-08-13T09:18:18.008Z,20.02
2016-08-13T09:19:17.188Z,20.03
2016-08-13T09:20:18.515Z,20.03
2016-08-13T09:21:15.657Z,20.03
2016-08-13T09:22:20.454Z,20.03
2016-08-13T09:23:15.772Z,20.07
2016-08-13T09:24:16.947Z,20.57
2016-08-13T09:25:18.688Z,20.63
2016-08-13T09:26:14.877Z,20.31
2016-08-13T09:27:18.977Z,20.13
2016-08-13T09:28:16.072Z,20.09
2016-08-13T09:29:15.857Z,20.07
2016-08-13T09:30:18.776Z,20.07
2016-08-13T09:31:17.776Z,20.05
2016-08-13T09:32:21.379Z,20.05
2016-08-13T09:33:21.536Z,20.05
2016-08-13T09:34:20.928Z,20.05
2016-08-13T09:35:20.818Z,20.05
2016-08-13T09:36:18.769Z,20.08
2016-08-13T09:37:21.773Z,20.59
2016-08-13T09:38:21.798Z,20.29
2016-08-13T09:39:14.792Z,20.15
2016-08-13T09:40:16.467Z,20.10
2016-08-13T09:41:15.287Z,20.08
2016-08-13T09:42:22.138Z,20.10
2016-08-13T09:43:25.428Z,20.58
2016-08-13T09:44:19.607Z,20.13
2016-08-13T09:45:17.239Z,20.10
2016-08-13T09:46:21.774Z,20.08
2016-08-13T09:47:21.812Z,20.10
2016-08-13T09:48:17.052Z,20.07
2016-08-13T09:49:20.555Z,20.07
2016-08-13T09:50:19.957Z,20.07
2016-08-13T09:51:19.264Z,20.08
2016-08-13T09:52:13.283Z,20.07
2016-08-13T09:53:13.080Z,20.08
2016-08-13T09:54:19.320Z,20.08
2016-08-13T09:55:16.990Z,20.08
2016-08-13T09:56:14.845Z,20.16
2016-08-13T09:57:15.828Z,20.08
2016-08-13T09:58:14.921Z,20.08
2016-08-13T09:59:15.980Z,20.08
2016-08-13T10:00:15.954Z,20.08
2016-08-13T10:01:15.840Z,20.08
2016-08-13T10:02:12.687Z,20.09
2016-08-13T10:03:14.532Z,20.09
2016-08-13T10:04:15.600Z,20.11
2016-08-13T10:05:15.303Z,20.09
2016-08-13T10:06:13.939Z,20.09
2016-08-13T10:07:12.513Z,20.08
2016-08-13T10:08:26.019Z,20.09
2016-08-13T10:09:21.305Z,20.11
2016-08-13T10:10:24.240Z,20.62
2016-08-13T10:11:23.061Z,20.66
2016-08-13T10:12:17.681Z,20.71
2016-08-13T10:13:16.186Z,20.45
2016-08-13T10:14:21.341Z,20.23
2016-08-13T10:15:20.691Z,20.68
2016-08-13T10:16:22.101Z,20.72
2016-08-13T10:17:20.276Z,20.73
2016-08-13T10:18:18.381Z,20.73
2016-08-13T10:19:12.326Z,20.75
2016-08-13T10:20:13.415Z,20.60
2016-08-13T10:21:16.905Z,20.23
2016-08-13T10:22:23.367Z,20.17
2016-08-13T10:23:18.836Z,20.14
2016-08-13T10:24:17.854Z,20.13
2016-08-13T10:25:21.193Z,20.12
2016-08-13T10:26:13.019Z,20.12
2016-08-13T10:27:17.658Z,20.12
2016-08-13T10:28:13.418Z,20.12
2016-08-13T10:29:14.706Z,20.12
2016-08-13T10:30:16.114Z,20.12
2016-08-13T10:31:13.397Z,20.12
2016-08-13T10:32:13.307Z,20.12
2016-08-13T10:33:12.123Z,20.11
2016-08-13T10:34:20.633Z,20.12
2016-08-13T10:35:18.025Z,20.12
2016-08-13T10:36:13.224Z,20.12
2016-08-13T10:37:18.491Z,20.12
2016-08-13T10:38:20.886Z,20.12
2016-08-13T10:39:18.285Z,20.12
2016-08-13T10:40:20.923Z,20.18
2016-08-13T10:41:17.624Z,20.13
2016-08-13T10:42:13.920Z,20.19
2016-08-13T10:43:15.107Z,20.15
2016-08-13T10:44:19.118Z,20.65
2016-08-13T10:45:20.358Z,20.19
2016-08-13T10:46:13.403Z,20.17
2016-08-13T10:47:21.573Z,20.14
2016-08-13T10:48:15.784Z,20.14
2016-08-13T10:49:17.183Z,20.14
2016-08-13T10:50:19.088Z,20.23
2016-08-13T10:51:20.636Z,20.67
2016-08-13T10:52:16.374Z,20.72
2016-08-13T10:53:19.527Z,20.75
2016-08-13T10:54:15.881Z,20.78
2016-08-13T10:55:15.300Z,20.78
2016-08-13T10:56:13.877Z,20.79
2016-08-13T10:57:18.888Z,20.79
2016-08-13T10:58:12.948Z,20.80
2016-08-13T10:59:14.191Z,20.80
2016-08-13T11:00:13.900Z,20.81
2016-08-13T11:01:13.533Z,20.43
2016-08-13T11:02:14.171Z,20.26
2016-08-13T11:03:18.646Z,20.21
2016-08-13T11:04:16.191Z,20.19
2016-08-13T11:05:13.093Z,20.18
2016-08-13T11:06:12.613Z,20.17
2016-08-13T11:07:15.653Z,20.16
2016-08-13T11:08:13.421Z,20.16
2016-08-13T11:09:14.079Z,20.15
2016-08-13T11:10:14.533Z,20.16
2016-08-13T11:11:15.085Z,20.16
2016-08-13T11:12:13.601Z,20.16
2016-08-13T11:13:14.851Z,20.16
2016-08-13T11:14:17.212Z,20.16
2016-08-13T11:15:18.444Z,20.22
2016-08-13T11:16:16.263Z,20.16
2016-08-13T11:17:11.267Z,20.16
2016-08-13T11:18:14.471Z,20.16
2016-08-13T11:19:19.216Z,20.16
2016-08-13T11:20:15.813Z,20.20
2016-08-13T11:21:17.486Z,20.69
2016-08-13T11:22:15.320Z,20.75
2016-08-13T11:23:16.147Z,20.25
2016-08-13T11:24:15.120Z,20.21
2016-08-13T11:25:18.173Z,20.19
2016-08-13T11:26:21.466Z,20.18
2016-08-13T11:27:15.114Z,20.18
2016-08-13T11:28:15.946Z,20.17
2016-08-13T11:29:14.167Z,20.17
2016-08-13T11:30:18.447Z,20.16
2016-08-13T11:31:15.485Z,20.16
2016-08-13T11:32:16.970Z,20.17
2016-08-13T11:33:13.461Z,20.17
2016-08-13T11:34:12.450Z,20.17
2016-08-13T11:35:12.223Z,20.17
2016-08-13T11:36:19.173Z,20.17
2016-08-13T11:37:14.195Z,20.17
2016-08-13T11:38:19.146Z,20.16
2016-08-13T11:39:13.880Z,20.17
2016-08-13T11:40:15.903Z,20.17
2016-08-13T11:41:19.335Z,20.17
2016-08-13T11:42:13.796Z,20.16
2016-08-13T11:43:17.989Z,20.20
2016-08-13T11:44:13.558Z,20.68
2016-08-13T11:45:19.623Z,20.39
2016-08-13T11:46:18.542Z,20.25
2016-08-13T11:47:22.660Z,20.22
2016-08-13T11:48:25.519Z,20.19
2016-08-13T11:49:31.133Z,20.19
2016-08-13T11:50:28.883Z,20.18
2016-08-13T11:51:16.434Z,20.19
2016-08-13T11:52:20.526Z,20.18
2016-08-13T11:53:19.954Z,20.17
2016-08-13T11:54:32.263Z,20.18
2016-08-13T11:55:31.304Z,20.18
2016-08-13T11:56:36.897Z,20.18
2016-08-13T11:57:28.450Z,20.18
2016-08-13T11:58:43.140Z,20.18
2016-08-13T11:59:32.131Z,20.19
2016-08-13T12:00:25.692Z,20.18
2016-08-13T12:01:37.727Z,20.18
2016-08-13T12:02:31.554Z,20.18
2016-08-13T12:03:28.922Z,20.24
2016-08-13T12:04:32.538Z,20.18
2016-08-13T12:05:27.214Z,20.18
2016-08-13T12:06:33.037Z,20.19
2016-08-13T12:07:32.708Z,20.19
2016-08-13T12:08:28.863Z,20.19
2016-08-13T12:10:32.014Z,20.19
2016-08-13T12:11:34.560Z,20.19
2016-08-13T12:12:28.446Z,20.20
2016-08-13T12:13:32.294Z,20.20
2016-08-13T12:14:28.541Z,20.23
2016-08-13T12:15:26.750Z,20.72
2016-08-13T12:16:32.291Z,20.33
2016-08-13T12:17:33.438Z,20.75
2016-08-13T12:18:32.835Z,20.80
2016-08-13T12:19:34.459Z,20.83
2016-08-13T12:20:28.796Z,20.84
2016-08-13T12:22:28.644Z,20.84
2016-08-13T12:23:37.129Z,20.85
2016-08-13T12:24:35.294Z,20.86
2016-08-13T12:25:32.540Z,20.48
2016-08-13T12:26:26.624Z,20.32
2016-08-13T12:28:36.321Z,20.24
2016-08-13T12:29:33.436Z,20.23
2016-08-13T12:31:35.126Z,20.22
2016-08-13T12:32:36.674Z,20.22
2016-08-13T12:33:25.773Z,20.22
2016-08-13T12:34:38.473Z,20.22
2016-08-13T12:35:37.178Z,20.20
2016-08-13T12:36:32.516Z,20.20
2016-08-13T12:37:37.426Z,20.21
2016-08-13T12:38:32.051Z,20.21
2016-08-13T12:39:21.968Z,20.21
2016-08-13T12:40:37.652Z,20.21
2016-08-13T12:41:45.455Z,20.22
2016-08-13T12:42:30.921Z,20.21
2016-08-13T12:43:29.627Z,20.21
2016-08-13T12:44:34.187Z,20.21
2016-08-13T12:45:31.179Z,20.22
2016-08-13T12:46:26.868Z,20.22
2016-08-13T12:47:30.432Z,20.22
2016-08-13T12:48:38.441Z,20.23
2016-08-13T12:49:26.786Z,20.22
2016-08-13T12:50:38.738Z,20.23
2016-08-13T12:51:35.597Z,20.23
2016-08-13T12:52:36.998Z,20.23
2016-08-13T12:53:33.391Z,20.23
2016-08-13T12:54:28.780Z,20.23
2016-08-13T12:55:32.977Z,20.23
2016-08-13T12:56:37.680Z,20.23
2016-08-13T12:57:27.496Z,20.24
2016-08-13T12:58:38.340Z,20.23
2016-08-13T12:59:42.150Z,20.23
2016-08-13T13:00:35.772Z,20.24
2016-08-13T13:01:47.888Z,20.27